Time;durP1;ratioP1;P1;durP2;ratioP2;P2;SDS_P1;SDS_P2;PMS_P1;PMS_P2;Temp;Humidity;BMP_temperature;BMP_pressure;BME280_temperature;BME280_humidity;BME280_pressure;Samples;Min_cycle;Max_cycle;Signal;HPM_P1;HPM_P2
2023/10/30 00:00:45;;;;;;;4.40;1.00;;;;;;;17.24;100.00;98593.53;5023564;28;20038;-94
2023/10/30 00:03:11;;;;;;;3.05;0.75;;;;;;;17.44;100.00;98621.94;5024094;28;20045;-95
2023/10/30 00:05:37;;;;;;;4.65;0.90;;;;;;;17.57;100.00;98621.25;5024880;28;20596;-93
2023/10/30 00:08:06;;;;;;;1.83;1.20;;;;;;;17.65;100.00;98608.19;5014435;28;20057;-95
2023/10/30 00:10:32;;;;;;;4.18;1.45;;;;;;;17.57;100.00;98588.97;5019214;28;20100;-94
2023/10/30 00:12:58;;;;;;;4.50;1.27;;;;;;;17.77;100.00;98601.25;5023818;28;20065;-93
2023/10/30 00:15:25;;;;;;;1.90;0.60;;;;;;;17.73;100.00;98599.69;5044524;28;20038;-92
2023/10/30 00:17:51;;;;;;;5.63;1.42;;;;;;;17.99;100.00;98634.00;5026791;28;20041;-94
2023/10/30 00:20:17;;;;;;;1.85;1.02;;;;;;;18.05;100.00;98632.78;5026247;28;20057;-95
2023/10/30 00:22:43;;;;;;;3.40;1.02;;;;;;;17.83;100.00;98574.88;5030391;28;20037;-94
2023/10/30 00:25:11;;;;;;;4.75;1.00;;;;;;;17.98;100.00;98602.69;5026017;28;20097;-94
2023/10/30 00:27:37;;;;;;;2.85;1.10;;;;;;;17.89;100.00;98594.28;5025529;28;20049;-94
2023/10/30 00:30:04;;;;;;;4.35;1.20;;;;;;;18.00;100.00;98634.84;5025470;28;21386;-93
2023/10/30 00:32:30;;;;;;;5.25;1.08;;;;;;;18.16;100.00;98659.06;5031702;28;20037;-95
2023/10/30 00:34:56;;;;;;;4.00;1.00;;;;;;;18.06;100.00;98656.91;5026537;28;20076;-95
2023/10/30 00:37:23;;;;;;;5.38;1.50;;;;;;;17.71;100.00;98590.84;5025704;28;20045;-94
2023/10/30 00:39:49;;;;;;;4.20;0.88;;;;;;;17.89;100.00;98622.06;5025564;28;20111;-95
2023/10/30 00:42:16;;;;;;;1.63;0.70;;;;;;;17.73;100.00;98595.16;5025561;28;20045;-96
2023/10/30 00:44:42;;;;;;;5.72;1.17;;;;;;;17.95;100.00;98616.31;5029071;28;20022;-95
2023/10/30 00:47:08;;;;;;;3.78;1.10;;;;;;;17.78;100.00;98574.25;5025561;28;20044;-94
2023/10/30 00:49:34;;;;;;;2.55;0.77;;;;;;;17.89;100.00;98589.78;5050664;28;20049;-93
2023/10/30 00:52:00;;;;;;;4.00;1.00;;;;;;;17.65;100.00;98558.00;5023056;28;20042;-93
2023/10/30 00:54:25;;;;;;;5.25;1.30;;;;;;;17.71;100.00;98567.50;5051418;28;20045;-92
2023/10/30 00:56:51;;;;;;;3.00;1.00;;;;;;;17.85;100.00;98607.94;5023985;28;20044;-96
2023/10/30 00:59:19;;;;;;;9.45;1.17;;;;;;;17.98;100.00;98645.75;5023860;28;20083;-93
2023/10/30 01:01:45;;;;;;;5.90;1.13;;;;;;;17.48;100.00;98567.97;5022960;28;20052;-94
2023/10/30 01:04:11;;;;;;;3.17;1.00;;;;;;;17.93;100.00;98637.06;5043498;28;20495;-94
2023/10/30 01:06:36;;;;;;;2.08;1.00;;;;;;;17.52;100.00;98572.22;5013431;28;20045;-94
2023/10/30 01:09:02;;;;;;;3.67;0.90;;;;;;;17.58;100.00;98566.50;5022741;28;20132;-94
2023/10/30 01:11:28;;;;;;;2.35;1.15;;;;;;;17.79;100.00;98631.59;5010122;28;20049;-93
2023/10/30 01:13:54;;;;;;;2.10;1.08;;;;;;;17.74;100.00;98609.47;5013374;28;20046;-93
2023/10/30 01:16:22;;;;;;;2.90;1.10;;;;;;;17.27;100.00;98559.38;5019364;28;20172;-94
2023/10/30 01:18:48;;;;;;;2.58;1.15;;;;;;;17.49;100.00;98584.03;5020429;28;20045;-93
2023/10/30 01:21:15;;;;;;;1.67;0.88;;;;;;;17.45;100.00;98559.13;5030338;28;20053;-94
2023/10/30 01:23:41;;;;;;;2.70;1.15;;;;;;;17.93;100.00;98631.66;5022762;28;20091;-93
2023/10/30 01:26:07;;;;;;;3.15;1.13;;;;;;;17.89;100.00;98615.81;5050466;28;20438;-94
2023/10/30 01:28:33;;;;;;;1.73;0.90;;;;;;;17.94;100.00;98619.09;5023437;28;20045;-95
2023/10/30 01:30:59;;;;;;;3.13;1.10;;;;;;;17.94;100.00;98628.03;5023546;28;20483;-94
2023/10/30 01:33:26;;;;;;;3.83;1.20;;;;;;;17.72;100.00;98584.50;5040563;28;20052;-94
2023/10/30 01:35:52;;;;;;;2.10;1.00;;;;;;;17.89;100.00;98629.25;5041735;28;20503;-95
2023/10/30 01:38:18;;;;;;;5.10;1.08;;;;;;;17.98;100.00;98621.53;5025133;28;20049;-94
2023/10/30 01:40:47;;;;;;;1.55;0.80;;;;;;;17.99;100.00;98593.66;5024979;28;20471;-93
2023/10/30 01:43:13;;;;;;;3.45;1.05;;;;;;;17.68;100.00;98540.81;5022129;28;20140;-94
2023/10/30 01:45:39;;;;;;;3.90;1.20;;;;;;;17.75;100.00;98535.91;5024136;28;20068;-94
2023/10/30 01:48:05;;;;;;;3.38;1.25;;;;;;;17.69;100.00;98521.00;5021259;28;20559;-94
2023/10/30 01:50:33;;;;;;;8.00;1.15;;;;;;;17.89;100.00;98556.63;5015682;28;20141;-94
2023/10/30 01:52:59;;;;;;;3.88;1.35;;;;;;;18.09;100.00;98585.91;5017802;28;20042;-95
2023/10/30 01:55:25;;;;;;;4.63;1.23;;;;;;;17.65;100.00;98528.41;5020616;28;20044;-93
2023/10/30 01:57:51;;;;;;;1.73;0.90;;;;;;;17.76;100.00;98521.50;5024467;28;20075;-93
2023/10/30 02:00:17;;;;;;;2.58;1.35;;;;;;;18.18;100.00;98597.94;5023408;28;20045;-94
2023/10/30 02:02:43;;;;;;;2.60;1.70;;;;;;;17.91;100.00;98533.19;5023633;28;20104;-94
2023/10/30 02:05:09;;;;;;;3.03;1.15;;;;;;;17.96;100.00;98531.09;5022971;28;20041;-94
2023/10/30 02:07:39;;;;;;;5.00;1.33;;;;;;;17.92;100.00;98519.66;5024164;28;20041;-95
2023/10/30 02:10:05;;;;;;;;;;;;;;;18.38;100.00;98577.84;5024462;28;20088;-93
2023/10/30 02:12:32;;;;;;;2.53;1.02;;;;;;;17.88;100.00;98491.22;5021825;28;19983;-95
2023/10/30 02:14:58;;;;;;;3.97;1.27;;;;;;;17.80;100.00;98482.69;5023196;28;20502;-94
2023/10/30 02:17:24;;;;;;;3.42;1.40;;;;;;;18.16;100.00;98549.56;5039766;28;20099;-94
2023/10/30 02:19:50;;;;;;;6.85;1.23;;;;;;;18.06;100.00;98524.19;5023417;28;20033;-94
2023/10/30 02:22:16;;;;;;;2.85;0.75;;;;;;;17.78;100.00;98476.56;5023251;28;20176;-94
2023/10/30 02:24:43;;;;;;;4.00;0.95;;;;;;;18.18;100.00;98557.56;5023580;28;20072;-93
2023/10/30 02:27:10;;;;;;;2.70;0.90;;;;;;;17.68;100.00;98489.72;5044873;28;20041;-96
2023/10/30 02:29:37;;;;;;;2.67;0.95;;;;;;;17.89;100.00;98517.16;5023006;28;20034;-93
2023/10/30 02:32:03;;;;;;;5.10;1.35;;;;;;;18.02;100.00;98539.66;5047249;28;20045;-95
2023/10/30 02:34:29;;;;;;;6.60;1.35;;;;;;;17.63;100.00;98478.34;5040840;28;20560;-95
2023/10/30 02:36:56;;;;;;;4.43;1.67;;;;;;;17.94;100.00;98531.19;5021214;28;20045;-94
2023/10/30 02:39:22;;;;;;;3.90;1.30;;;;;;;17.76;100.00;98495.50;5019199;28;20115;-95
2023/10/30 02:41:48;;;;;;;5.35;1.20;;;;;;;17.52;100.00;98468.28;5019270;28;20497;-96
2023/10/30 02:44:15;;;;;;;2.28;1.10;;;;;;;17.84;100.00;98516.56;5043533;28;20072;-93
2023/10/30 02:46:41;;;;;;;3.33;1.20;;;;;;;17.80;100.00;98505.09;5011320;28;20130;-95
2023/10/30 02:49:08;;;;;;;4.30;1.30;;;;;;;17.90;100.00;98523.41;5019352;28;20053;-94
2023/10/30 02:51:34;;;;;;;5.28;1.33;;;;;;;17.61;100.00;98466.84;5019318;28;20073;-94
2023/10/30 02:54:00;;;;;;;2.63;1.00;;;;;;;17.71;100.00;98483.28;5037376;28;20517;-93
2023/10/30 02:56:25;;;;;;;4.53;1.38;;;;;;;17.98;100.00;98515.75;5019778;28;20140;-95
2023/10/30 02:58:51;;;;;;;2.67;0.98;;;;;;;17.86;100.00;98476.97;5019146;28;20049;-93
2023/10/30 03:01:20;;;;;;;5.47;1.35;;;;;;;18.23;100.00;98526.69;5015306;28;20058;-94
2023/10/30 03:03:46;;;;;;;1.98;0.93;;;;;;;18.11;100.00;98510.44;5015899;28;20046;-94
2023/10/30 03:06:12;;;;;;;3.70;1.10;;;;;;;18.13;100.00;98525.56;5021838;28;20104;-94
2023/10/30 03:08:38;;;;;;;1.58;1.17;;;;;;;18.03;100.00;98492.94;5015877;28;20057;-94
2023/10/30 03:11:04;;;;;;;2.65;1.05;;;;;;;18.17;100.00;98521.72;5016009;28;20042;-94
2023/10/30 03:13:29;;;;;;;2.67;1.27;;;;;;;17.83;100.00;98475.34;5015146;28;20109;-94
2023/10/30 03:15:55;;;;;;;3.60;1.02;;;;;;;18.00;100.00;98505.72;5014733;28;20069;-94
2023/10/30 03:18:23;;;;;;;5.53;1.17;;;;;;;17.86;100.00;98488.59;5009411;28;20506;-94
2023/10/30 03:20:49;;;;;;;3.28;1.13;;;;;;;18.13;100.00;98517.47;5008373;28;20492;-94
2023/10/30 03:23:15;;;;;;;2.42;1.50;;;;;;;18.09;100.00;98504.31;5015926;28;20042;-93
2023/10/30 03:25:41;;;;;;;4.10;1.42;;;;;;;18.26;100.00;98520.28;5016041;28;20034;-95
2023/10/30 03:28:07;;;;;;;4.43;1.42;;;;;;;18.09;100.00;98507.84;5015398;28;20528;-94
2023/10/30 03:30:34;;;;;;;4.65;1.45;;;;;;;17.99;100.00;98467.19;5036288;28;20037;-95
2023/10/30 03:33:00;;;;;;;5.15;1.27;;;;;;;18.32;100.00;98533.31;5015286;28;20038;-95
2023/10/30 03:35:28;;;;;;;4.85;1.65;;;;;;;18.19;100.00;98489.31;5017978;28;20393;-95
2023/10/30 03:37:53;;;;;;;5.07;1.30;;;;;;;18.20;100.00;98482.97;5015174;28;20104;-94
2023/10/30 03:40:19;;;;;;;3.47;1.88;;;;;;;18.23;100.00;98464.78;5041356;28;20034;-96
2023/10/30 03:42:45;;;;;;;4.80;1.23;;;;;;;18.44;100.00;98489.47;5014969;28;20034;-95
2023/10/30 03:45:11;;;;;;;5.78;1.88;;;;;;;18.27;100.00;98469.00;5015025;28;20508;-93
2023/10/30 03:47:37;;;;;;;4.80;1.27;;;;;;;18.50;100.00;98501.69;5035578;28;20491;-93
2023/10/30 03:50:05;;;;;;;2.03;1.00;;;;;;;18.64;100.00;98512.44;5012936;28;20038;-94
2023/10/30 03:52:33;;;;;;;3.85;1.75;;;;;;;18.43;100.00;98482.38;5015505;28;20080;-94
2023/10/30 03:55:03;;;;;;;3.78;1.25;;;;;;;18.41;100.00;98510.34;5017012;28;20042;-94
2023/10/30 03:57:29;;;;;;;4.05;1.40;;;;;;;17.97;100.00;98468.25;5014435;28;20506;-94
2023/10/30 03:59:55;;;;;;;5.32;1.50;;;;;;;17.94;100.00;98471.16;5015270;28;20038;-94
2023/10/30 04:02:20;;;;;;;4.95;1.60;;;;;;;17.92;100.00;98508.91;5015232;28;20149;-94
2023/10/30 04:04:46;;;;;;;5.85;1.40;;;;;;;17.96;100.00;98505.06;5019937;28;20053;-94
2023/10/30 04:07:12;;;;;;;3.42;1.35;;;;;;;17.64;100.00;98437.06;5015697;28;20105;-94
2023/10/30 04:09:40;;;;;;;2.83;1.02;;;;;;;17.88;100.00;98495.72;5016185;28;20092;-94
2023/10/30 04:12:06;;;;;;;4.80;1.45;;;;;;;17.76;100.00;98490.13;5015203;28;20022;-92
2023/10/30 04:14:32;;;;;;;3.15;1.02;;;;;;;17.76;100.00;98473.97;5014900;28;20046;-92
2023/10/30 04:16:58;;;;;;;4.05;1.20;;;;;;;17.60;100.00;98454.34;5008902;28;20136;-93
2023/10/30 04:19:24;;;;;;;2.85;1.10;;;;;;;17.65;100.00;98471.06;5003511;28;20133;-93
2023/10/30 04:21:50;;;;;;;4.82;1.55;;;;;;;17.73;100.00;98482.22;5010717;28;20065;-93
2023/10/30 04:24:17;;;;;;;3.40;1.35;;;;;;;17.60;100.00;98468.66;5012040;28;20112;-94
2023/10/30 04:26:44;;;;;;;4.35;1.27;;;;;;;17.69;100.00;98472.59;4999172;28;20046;-93
2023/10/30 04:29:10;;;;;;;7.85;1.20;;;;;;;17.59;100.00;98483.06;5013282;28;20132;-95
2023/10/30 04:31:36;;;;;;;4.43;1.60;;;;;;;17.13;100.00;98432.06;5018412;28;20088;-94
2023/10/30 04:34:02;;;;;;;5.55;1.15;;;;;;;17.39;100.00;98478.88;5016088;28;20050;-95
2023/10/30 04:36:27;;;;;;;5.78;1.33;;;;;;;17.48;100.00;98490.03;5018152;28;20130;-93
2023/10/30 04:38:53;;;;;;;3.10;1.42;;;;;;;17.38;100.00;98446.72;5015212;28;20080;-94
2023/10/30 04:41:19;;;;;;;5.00;1.58;;;;;;;17.32;100.00;98444.38;5017848;28;20129;-94
2023/10/30 04:43:46;;;;;;;5.43;1.63;;;;;;;17.76;100.00;98498.19;5018108;28;20096;-94
2023/10/30 04:46:13;;;;;;;4.95;1.52;;;;;;;17.70;100.00;98482.41;5041463;28;20423;-94
2023/10/30 04:48:38;;;;;;;5.07;1.58;;;;;;;17.79;100.00;98486.38;5018302;28;20443;-93
2023/10/30 04:51:04;;;;;;;2.95;1.35;;;;;;;17.69;100.00;98469.06;5021305;28;20042;-95
2023/10/30 04:53:30;;;;;;;3.63;1.30;;;;;;;17.69;100.00;98469.06;5018356;28;20098;-93
2023/10/30 04:55:57;;;;;;;4.13;1.30;;;;;;;17.59;100.00;98445.41;5020769;28;20069;-94
2023/10/30 04:58:23;;;;;;;3.08;1.33;;;;;;;17.73;100.00;98438.31;5039025;28;20500;-95
2023/10/30 05:00:50;;;;;;;4.13;1.63;;;;;;;17.72;100.00;98420.44;5025743;28;20038;-95
2023/10/30 05:03:16;;;;;;;6.90;1.40;;;;;;;18.12;100.00;98475.38;5020809;28;20048;-95
2023/10/30 05:05:42;;;;;;;5.28;2.22;;;;;;;18.13;100.00;98470.84;5020819;28;20045;-94
2023/10/30 05:08:08;;;;;;;3.53;1.52;;;;;;;17.94;100.00;98471.16;5047049;28;20526;-94
2023/10/30 05:10:33;;;;;;;5.00;1.33;;;;;;;17.74;100.00;98430.19;5011959;28;20128;-93
2023/10/30 05:12:59;;;;;;;5.25;1.52;;;;;;;17.86;100.00;98466.22;5037068;28;20037;-93
2023/10/30 05:15:25;;;;;;;3.30;1.30;;;;;;;18.00;100.00;98490.47;5020007;28;20052;-95
2023/10/30 05:17:53;;;;;;;5.80;2.50;;;;;;;17.91;100.00;98458.72;5020877;28;20042;-95
2023/10/30 05:20:18;;;;;;;5.78;1.42;;;;;;;17.77;100.00;98432.66;5019984;28;20037;-96
2023/10/30 05:22:44;;;;;;;4.05;1.60;;;;;;;17.78;100.00;98437.09;5037401;28;20044;-95
2023/10/30 05:25:10;;;;;;;6.32;1.80;;;;;;;17.62;100.00;98429.09;5037179;28;20049;-92
2023/10/30 05:27:36;;;;;;;5.00;1.88;;;;;;;17.63;100.00;98430.84;5021616;28;20049;-93
2023/10/30 05:30:03;;;;;;;4.65;1.60;;;;;;;17.96;100.00;98482.69;5020342;28;20045;-95
2023/10/30 05:32:28;;;;;;;5.68;1.58;;;;;;;17.85;100.00;98460.00;5005698;28;20037;-95
2023/10/30 05:34:56;;;;;;;3.60;2.08;;;;;;;18.02;100.00;98495.72;5021038;28;20046;-92
2023/10/30 05:37:22;;;;;;;5.63;1.73;;;;;;;18.04;100.00;98477.66;5015818;28;20038;-95
2023/10/30 05:39:49;;;;;;;5.90;1.45;;;;;;;18.06;100.00;98479.31;5015648;28;20133;-94
2023/10/30 05:42:15;;;;;;;6.22;1.83;;;;;;;18.03;100.00;98473.25;5020418;28;20050;-95
2023/10/30 05:44:41;;;;;;;7.40;1.27;;;;;;;17.99;100.00;98474.41;5021234;28;20033;-95
2023/10/30 05:47:07;;;;;;;5.45;1.25;;;;;;;18.22;100.00;98500.75;5021456;28;20156;-93
2023/10/30 05:49:33;;;;;;;4.03;1.70;;;;;;;18.10;100.00;98458.44;5041682;28;20517;-95
2023/10/30 05:52:02;;;;;;;2.90;1.52;;;;;;;17.95;100.00;98438.75;5023025;28;20045;-94
2023/10/30 05:54:28;;;;;;;3.80;1.20;;;;;;;18.11;100.00;98443.16;5024346;28;20057;-94
2023/10/30 05:56:54;;;;;;;3.67;1.30;;;;;;;18.33;100.00;98470.47;5024738;28;20457;-95
2023/10/30 05:59:21;;;;;;;6.35;1.88;;;;;;;18.34;100.00;98466.78;5023119;28;20044;-93
2023/10/30 06:01:48;;;;;;;6.18;1.58;;;;;;;18.12;100.00;98437.69;5024787;28;20041;-94
2023/10/30 06:04:14;;;;;;;5.93;1.73;;;;;;;17.94;100.00;98414.66;5028311;28;20041;-94
2023/10/30 06:06:40;;;;;;;10.45;1.50;;;;;;;18.29;100.00;98468.94;5048844;28;20052;-94
2023/10/30 06:09:08;;;;;;;8.13;1.45;;;;;;;18.41;100.00;98500.47;5050435;28;20053;-94
2023/10/30 06:11:34;;;;;;;4.15;1.27;;;;;;;18.12;100.00;98444.91;5022653;28;20099;-95
2023/10/30 06:14:00;;;;;;;4.80;1.60;;;;;;;17.98;100.00;98419.75;5025774;28;20049;-95
2023/10/30 06:16:27;;;;;;;1.80;1.27;;;;;;;18.20;100.00;98475.75;5025189;28;20046;-92
2023/10/30 06:18:53;;;;;;;2.53;1.77;;;;;;;18.09;100.00;98461.25;5019520;28;20041;-92
2023/10/30 06:21:20;;;;;;;3.55;1.10;;;;;;;18.12;100.00;98452.97;5019734;28;20052;-90
2023/10/30 06:23:47;;;;;;;5.93;1.17;;;;;;;18.24;100.00;98476.44;5028516;28;20080;-91
2023/10/30 06:26:14;;;;;;;7.57;1.70;;;;;;;18.27;100.00;98463.63;5022620;28;20049;-93
2023/10/30 06:28:41;;;;;;;2.15;1.45;;;;;;;18.50;100.00;98488.25;5021278;28;20441;-93
2023/10/30 06:31:13;;;;;;;2.83;1.40;;;;;;;18.45;100.00;98479.56;5020803;28;20033;-91
2023/10/30 06:33:39;;;;;;;3.72;1.27;;;;;;;18.46;100.00;98487.56;5026415;28;20045;-92
2023/10/30 06:36:05;;;;;;;6.25;1.70;;;;;;;18.54;100.00;98503.25;5022251;28;20049;-94
2023/10/30 06:38:31;;;;;;;3.63;1.27;;;;;;;18.34;100.00;98500.94;5020281;28;20034;-94
2023/10/30 06:40:57;;;;;;;4.47;1.60;;;;;;;18.44;100.00;98518.25;5019183;28;20042;-94
2023/10/30 06:43:25;;;;;;;4.57;1.58;;;;;;;18.55;100.00;98520.25;5019577;28;20041;-94
2023/10/30 06:45:58;;;;;;;2.10;1.20;;;;;;;18.51;100.00;98494.47;5054313;28;20045;-94
2023/10/30 06:48:24;;;;;;;2.65;1.02;;;;;;;18.57;100.00;98496.78;5021157;28;20084;-94
2023/10/30 06:50:50;;;;;;;2.45;1.23;;;;;;;18.23;100.00;98437.00;5032033;28;20455;-92
2023/10/30 06:53:16;;;;;;;2.55;1.10;;;;;;;18.37;100.00;98463.94;5019420;28;20045;-92
2023/10/30 06:55:41;;;;;;;3.83;1.23;;;;;;;18.37;100.00;98482.78;5020884;28;20037;-95
2023/10/30 06:58:07;;;;;;;6.35;1.67;;;;;;;18.65;100.00;98508.81;5023540;28;20129;-93
2023/10/30 07:00:35;;;;;;;4.28;1.83;;;;;;;18.51;100.00;98487.25;5023285;28;20025;-93
2023/10/30 07:03:01;;;;;;;4.00;1.55;;;;;;;18.40;100.00;98501.41;5021955;28;20561;-95
2023/10/30 07:05:27;;;;;;;4.30;1.30;;;;;;;18.58;100.00;98522.75;5020951;28;20050;-93
2023/10/30 07:07:53;;;;;;;4.40;1.67;;;;;;;18.37;100.00;98493.53;5020013;28;20091;-95
2023/10/30 07:10:19;;;;;;;5.45;1.52;;;;;;;18.45;100.00;98509.19;5041412;28;20055;-93
2023/10/30 07:12:45;;;;;;;5.03;1.40;;;;;;;18.32;100.00;98500.16;5020070;28;20132;-93
2023/10/30 07:15:11;;;;;;;4.40;1.73;;;;;;;18.44;100.00;98535.25;5011588;28;20045;-93
2023/10/30 07:17:38;;;;;;;4.90;1.50;;;;;;;18.54;100.00;98540.94;5005869;28;20044;-95
2023/10/30 07:20:05;;;;;;;6.95;1.90;;;;;;;18.66;100.00;98552.75;5019463;28;20507;-93
2023/10/30 07:22:31;;;;;;;4.72;1.60;;;;;;;18.59;100.00;98533.44;5036779;28;20037;-94
2023/10/30 07:24:57;;;;;;;5.88;1.75;;;;;;;18.32;100.00;98482.19;5045370;28;20042;-94
2023/10/30 07:27:23;;;;;;;8.77;1.63;;;;;;;18.50;100.00;98488.25;5047667;28;20045;-92
2023/10/30 07:29:49;;;;;;;4.30;1.48;;;;;;;18.80;100.00;98506.09;5024375;28;20046;-94
2023/10/30 07:32:15;;;;;;;7.10;1.80;;;;;;;18.96;100.00;98541.88;5028352;28;20116;-93
2023/10/30 07:34:43;;;;;;;6.13;1.60;;;;;;;18.93;100.00;98515.09;5039660;28;20052;-92
2023/10/30 07:37:10;;;;;;;5.13;1.50;;;;;;;19.13;100.00;98507.53;5040051;28;20480;-92
2023/10/30 07:39:35;;;;;;;6.43;1.48;;;;;;;19.35;100.00;98507.84;5056291;28;20095;-92
2023/10/30 07:42:02;;;;;;;5.07;1.50;;;;;;;19.38;100.00;98487.91;5023398;28;20041;-94
2023/10/30 07:44:28;;;;;;;8.57;1.77;;;;;;;19.76;100.00;98509.59;5024229;28;20061;-95
2023/10/30 07:46:54;;;;;;;6.30;1.80;;;;;;;19.67;100.00;98469.75;5022246;28;20121;-94
2023/10/30 07:49:20;;;;;;;3.95;2.10;;;;;;;19.90;100.00;98481.66;5023999;28;20041;-94
2023/10/30 07:51:47;;;;;;;3.17;1.60;;;;;;;20.16;100.00;98479.81;5023831;28;20049;-94
2023/10/30 07:54:14;;;;;;;2.75;1.92;;;;;;;20.44;100.00;98508.41;5024295;28;20053;-94
2023/10/30 07:56:40;;;;;;;2.92;1.50;;;;;;;20.49;100.00;98498.16;5024161;28;20087;-93
2023/10/30 07:59:06;;;;;;;9.25;1.73;;;;;;;20.52;100.00;98472.75;5024339;28;20045;-95
2023/10/30 08:01:32;;;;;;;3.78;1.33;;;;;;;20.69;100.00;98476.97;5027117;28;20076;-94
2023/10/30 08:03:59;;;;;;;6.88;1.75;;;;;;;20.78;100.00;98448.41;5026771;28;20068;-94
2023/10/30 08:06:25;;;;;;;2.88;1.20;;;;;;;20.96;100.00;98444.31;5025433;28;20502;-94
2023/10/30 08:08:53;;;;;;;3.90;1.50;;;;;;;21.19;100.00;98499.38;5025847;28;20088;-93
2023/10/30 08:11:19;;;;;;;2.72;1.23;;;;;;;21.01;100.00;98493.47;5037272;28;20045;-95
2023/10/30 08:13:46;;;;;;;5.53;1.40;;;;;;;21.00;100.00;98488.22;5039181;28;20056;-93
2023/10/30 08:16:11;;;;;;;4.25;1.63;;;;;;;21.08;100.00;98475.84;5024053;28;20105;-94
2023/10/30 08:18:38;;;;;;;4.57;1.63;;;;;;;21.44;100.00;98476.75;5025442;28;20072;-93
2023/10/30 08:21:04;;;;;;;5.38;1.70;;;;;;;21.41;100.00;98492.34;5024240;28;20053;-93
2023/10/30 08:23:30;;;;;;;3.17;1.70;;;;;;;21.08;100.00;98427.19;5025051;28;20042;-94
2023/10/30 08:25:57;;;;;;;4.68;1.45;;;;;;;21.42;100.00;98467.91;5024928;28;20048;-95
2023/10/30 08:28:23;;;;;;;7.13;1.33;;;;;;;21.47;100.00;98472.94;5024094;28;20075;-94
2023/10/30 08:30:49;;;;;;;5.18;1.58;;;;;;;21.12;98.84;98439.50;5021455;28;20034;-95
2023/10/30 08:33:15;;;;;;;4.65;1.30;;;;;;;21.44;99.50;98487.59;5020027;28;20038;-94
2023/10/30 08:35:41;;;;;;;3.25;1.45;;;;;;;21.44;100.00;98447.00;5012613;28;20533;-94
2023/10/30 08:38:07;;;;;;;7.70;1.60;;;;;;;21.75;100.00;98466.28;5040568;28;20041;-95
2023/10/30 08:40:33;;;;;;;5.00;2.10;;;;;;;21.66;100.00;98453.47;5024367;28;20075;-95
2023/10/30 08:43:00;;;;;;;4.55;1.77;;;;;;;21.51;96.09;98450.09;5040549;28;20107;-93
2023/10/30 08:45:26;;;;;;;4.57;1.30;;;;;;;21.42;99.12;98416.50;5022397;28;20106;-95
2023/10/30 08:47:52;;;;;;;4.70;1.70;;;;;;;21.80;100.00;98439.72;5021936;28;20065;-94
2023/10/30 08:50:18;;;;;;;6.00;1.67;;;;;;;22.08;94.27;98456.50;5020770;28;20049;-93
2023/10/30 08:52:44;;;;;;;4.90;1.80;;;;;;;22.52;96.25;98484.63;5019601;28;20041;-95
2023/10/30 08:55:10;;;;;;;3.25;1.27;;;;;;;22.35;89.52;98470.56;5019786;28;20498;-93
2023/10/30 08:57:36;;;;;;;5.38;1.80;;;;;;;22.62;92.53;98493.72;5019538;28;20059;-94
2023/10/30 09:00:06;;;;;;;2.78;1.67;;;;;;;22.36;91.23;98425.41;5020392;28;20037;-94
2023/10/30 09:02:32;;;;;;;6.22;1.50;;;;;;;22.62;87.94;98466.63;5020418;28;20041;-94
2023/10/30 09:04:58;;;;;;;7.88;1.95;;;;;;;22.64;88.69;98421.28;5020372;28;20068;-93
2023/10/30 09:07:24;;;;;;;3.17;1.02;;;;;;;22.83;84.10;98482.97;5020528;28;20089;-93
2023/10/30 09:09:50;;;;;;;7.80;1.58;;;;;;;22.68;91.81;98473.38;5019748;28;20042;-94
2023/10/30 09:12:17;;;;;;;3.83;1.50;;;;;;;22.56;87.88;98407.50;5018834;28;20128;-94
2023/10/30 09:14:42;;;;;;;5.93;1.55;;;;;;;22.86;88.77;98449.34;5019678;28;20045;-93
2023/10/30 09:17:10;;;;;;;6.30;3.13;;;;;;;22.81;86.61;98419.03;5019864;28;20047;-94
2023/10/30 09:19:36;;;;;;;3.63;1.50;;;;;;;22.98;85.82;98440.16;5020498;28;20064;-93
2023/10/30 09:22:03;;;;;;;5.80;1.50;;;;;;;22.76;85.00;98389.59;5019432;28;20045;-94
2023/10/30 09:24:28;;;;;;;4.78;1.38;;;;;;;23.08;87.00;98430.31;5019945;28;20056;-93
2023/10/30 09:26:54;;;;;;;2.15;0.93;;;;;;;23.17;84.00;98444.97;5019072;28;20075;-93
2023/10/30 09:29:20;;;;;;;3.50;1.27;;;;;;;23.17;82.66;98420.53;5020728;28;20045;-93
2023/10/30 09:31:49;;;;;;;4.63;1.60;;;;;;;23.06;81.70;98402.47;5019407;28;20025;-94
2023/10/30 09:34:16;;;;;;;4.82;1.60;;;;;;;23.10;80.92;98425.63;5015460;28;20073;-94
2023/10/30 09:36:42;;;;;;;4.80;1.30;;;;;;;22.99;80.84;98428.34;5017922;28;20033;-93
2023/10/30 09:39:08;;;;;;;6.35;1.73;;;;;;;22.67;82.68;98428.31;5016340;28;20038;-93
2023/10/30 09:41:39;;;;;;;5.18;1.70;;;;;;;22.44;84.75;98405.78;5019179;28;20037;-94
2023/10/30 09:44:09;;;;;;;3.60;1.48;;;;;;;22.42;87.20;98430.28;5019596;28;20049;-94
2023/10/30 09:46:37;;;;;;;6.32;1.42;;;;;;;21.92;89.07;98390.03;5016047;28;20128;-94
2023/10/30 09:49:04;;;;;;;3.58;1.83;;;;;;;22.06;89.66;98388.06;5014298;28;20569;-93
2023/10/30 09:51:33;;;;;;;6.50;1.73;;;;;;;22.15;90.28;98433.38;5020484;28;20045;-93
2023/10/30 09:53:59;;;;;;;4.50;1.70;;;;;;;21.83;87.48;98369.09;5035720;28;20103;-93
2023/10/30 09:56:26;;;;;;;3.78;1.63;;;;;;;22.26;86.41;98429.81;5019335;28;20055;-94
2023/10/30 09:58:52;;;;;;;5.07;1.23;;;;;;;22.30;87.57;98434.03;5012792;28;20108;-92
2023/10/30 10:01:20;;;;;;;3.33;1.35;;;;;;;22.46;86.59;98417.38;5010197;28;20049;-94
2023/10/30 10:03:46;;;;;;;3.42;1.60;;;;;;;22.39;85.98;98399.91;5019732;28;20125;-94
2023/10/30 10:06:12;;;;;;;5.50;1.35;;;;;;;22.97;84.03;98419.47;5019498;28;20132;-95
2023/10/30 10:08:42;;;;;;;5.20;1.40;;;;;;;23.05;81.70;98403.47;5019254;28;20072;-93
2023/10/30 10:11:08;;;;;;;4.22;1.75;;;;;;;23.01;80.97;98401.13;5013421;28;20038;-93
2023/10/30 10:13:37;;;;;;;9.43;1.70;;;;;;;23.16;79.62;98395.28;5019633;28;20049;-94
2023/10/30 10:16:04;;;;;;;5.35;1.58;;;;;;;23.40;78.93;98410.47;5018390;28;20180;-94
2023/10/30 10:18:31;;;;;;;5.07;1.38;;;;;;;23.25;78.73;98373.75;5019152;28;20045;-94
2023/10/30 10:20:59;;;;;;;4.55;1.58;;;;;;;23.09;78.34;98391.34;5019166;28;20053;-93
2023/10/30 10:23:25;;;;;;;5.95;1.48;;;;;;;23.28;80.62;98395.22;5018556;28;20041;-94
2023/10/30 10:25:56;;;;;;;6.47;2.03;;;;;;;23.24;79.39;98378.31;5034424;28;20096;-95
2023/10/30 10:28:23;;;;;;;4.57;1.65;;;;;;;23.15;79.09;98355.56;5018559;28;20054;-95
2023/10/30 10:30:49;;;;;;;8.23;1.55;;;;;;;23.47;77.64;98373.66;5015324;28;20077;-94
2023/10/30 10:33:15;;;;;;;3.63;1.75;;;;;;;23.45;77.30;98351.22;5013788;28;20045;-93
2023/10/30 10:35:41;;;;;;;5.38;1.45;;;;;;;23.31;76.90;98327.13;5015234;28;20091;-95
2023/10/30 10:38:09;;;;;;;6.28;1.70;;;;;;;23.58;76.18;98349.16;5008974;28;20041;-93
2023/10/30 10:40:34;;;;;;;5.20;1.10;;;;;;;23.80;74.24;98327.44;5019373;28;20037;-94
2023/10/30 10:43:02;;;;;;;4.38;1.73;;;;;;;23.80;74.00;98352.72;5017618;28;20038;-95
2023/10/30 10:45:30;;;;;;;3.45;1.38;;;;;;;23.44;72.49;98281.63;5017795;28;20056;-94
2023/10/30 10:47:56;;;;;;;4.25;1.33;;;;;;;23.80;72.89;98336.44;5018682;28;20037;-95
2023/10/30 10:50:22;;;;;;;7.10;1.83;;;;;;;23.96;73.72;98335.91;5018435;28;20040;-94
2023/10/30 10:52:51;;;;;;;6.35;1.30;;;;;;;23.69;73.10;98347.34;5030692;28;20037;-93
2023/10/30 10:55:23;;;;;;;3.08;1.40;;;;;;;23.76;72.79;98310.53;5034158;28;20037;-92
2023/10/30 10:57:57;;;;;;;4.38;1.30;;;;;;;24.09;73.58;98332.97;5017546;28;20487;-93
2023/10/30 11:00:29;;;;;;;4.93;1.55;;;;;;;24.03;69.74;98273.75;5015311;28;20038;-94
2023/10/30 11:03:01;;;;;;;3.70;1.55;;;;;;;24.04;71.92;98306.22;5017542;28;21339;-92
2023/10/30 11:05:29;;;;;;;3.70;1.33;;;;;;;24.14;72.39;98311.69;5019336;28;20047;-93
2023/10/30 11:08:00;;;;;;;3.25;1.20;;;;;;;24.06;73.86;98274.34;5018457;28;20037;-93
2023/10/30 11:10:31;;;;;;;3.10;1.17;;;;;;;24.13;73.81;98288.22;5017481;28;20121;-94
2023/10/30 11:13:11;;;;;;;4.00;1.38;;;;;;;24.05;74.12;98305.25;5018118;28;20037;-93
2023/10/30 11:15:48;;;;;;;8.02;1.17;;;;;;;24.04;72.64;98270.06;5022668;28;20045;-95
2023/10/30 11:18:21;;;;;;;6.25;1.52;;;;;;;24.14;71.85;98311.69;5020327;28;20041;-94
2023/10/30 11:20:47;;;;;;;2.60;1.05;;;;;;;23.91;75.13;98270.31;5018171;28;20028;-94
2023/10/30 11:23:56;;;;;;;4.88;1.23;;;;;;;24.15;74.75;98297.97;5017209;28;20037;-93